createdAt,value
2019-01-25T05:00:51.960Z,0.00
2019-01-25T05:01:52.197Z,0.00
2019-01-25T05:03:44.504Z,0.00
2019-01-25T05:04:44.353Z,0.00
2019-01-25T05:06:37.019Z,0.00
2019-01-25T05:07:36.908Z,0.00
2019-01-25T05:09:29.579Z,0.00
2019-01-25T05:10:29.443Z,0.00
2019-01-25T05:12:22.106Z,0.00
2019-01-25T05:13:21.977Z,0.00
2019-01-25T05:15:14.659Z,0.00
2019-01-25T05:16:14.516Z,0.00
2019-01-25T05:18:07.172Z,0.00
2019-01-25T05:19:07.059Z,0.00
2019-01-25T05:20:59.728Z,0.00
2019-01-25T05:21:59.595Z,0.00
2019-01-25T05:23:52.246Z,0.00
2019-01-25T05:24:52.127Z,0.00
2019-01-25T05:26:44.797Z,0.00
2019-01-25T05:27:44.664Z,0.00
2019-01-25T05:29:37.328Z,0.00
2019-01-25T05:30:37.199Z,0.00
2019-01-25T05:32:29.849Z,0.00
2019-01-25T05:33:29.735Z,0.00
2019-01-25T05:35:22.411Z,0.00
2019-01-25T05:36:22.272Z,0.00
2019-01-25T05:38:14.923Z,0.00
2019-01-25T05:39:14.800Z,0.00
2019-01-25T05:41:07.481Z,0.00
2019-01-25T05:42:07.346Z,0.00
2019-01-25T05:43:59.999Z,0.00
2019-01-25T05:44:59.884Z,0.00
2019-01-25T05:46:52.549Z,0.00
2019-01-25T05:47:52.422Z,0.00
2019-01-25T05:49:45.068Z,0.00
2019-01-25T05:50:44.953Z,0.00
2019-01-25T05:52:37.617Z,0.00
2019-01-25T05:53:37.487Z,0.00
2019-01-25T05:55:30.173Z,0.00
2019-01-25T05:56:30.035Z,0.00
2019-01-25T05:58:22.688Z,0.00
2019-01-25T05:59:22.570Z,0.00
2019-01-25T06:01:15.241Z,0.00
2019-01-25T06:02:15.112Z,0.00
2019-01-25T06:04:07.759Z,0.00
2019-01-25T06:05:07.642Z,0.00
2019-01-25T06:07:00.311Z,0.00
2019-01-25T06:08:00.176Z,0.00
2019-01-25T06:09:52.830Z,0.00
2019-01-25T06:10:52.722Z,0.00
2019-01-25T06:12:45.386Z,0.00
2019-01-25T06:13:45.256Z,0.00
2019-01-25T06:15:37.909Z,0.00
2019-01-25T06:16:37.790Z,0.00
2019-01-25T06:18:30.462Z,0.00
2019-01-25T06:19:30.326Z,0.00
2019-01-25T06:21:23.012Z,0.00
2019-01-25T06:22:22.872Z,0.00
2019-01-25T06:24:15.525Z,0.00
2019-01-25T06:25:15.415Z,0.00
2019-01-25T06:27:08.081Z,0.00
2019-01-25T06:28:07.955Z,0.00
2019-01-25T06:30:00.614Z,0.00
2019-01-25T06:31:00.493Z,0.00
2019-01-25T06:32:53.170Z,0.00
2019-01-25T06:33:53.030Z,0.00
2019-01-25T06:35:45.691Z,0.00
2019-01-25T06:36:45.569Z,0.00
2019-01-25T06:38:38.234Z,0.00
2019-01-25T06:39:38.104Z,0.00
2019-01-25T06:41:30.773Z,0.00
2019-01-25T06:42:30.635Z,0.00
2019-01-25T06:44:23.281Z,0.00
2019-01-25T06:45:23.172Z,0.00
2019-01-25T06:47:15.836Z,4.00
2019-01-25T06:48:15.701Z,4.00
2019-01-25T06:50:08.348Z,4.00
2019-01-25T06:51:08.228Z,4.00
2019-01-25T06:53:00.894Z,4.00
2019-01-25T06:54:00.764Z,4.00
2019-01-25T06:55:53.422Z,8.00
2019-01-25T06:56:53.297Z,8.00
2019-01-25T06:58:45.960Z,8.00
2019-01-25T06:59:45.827Z,12.00
2019-01-25T07:01:38.496Z,12.00
2019-01-25T07:02:38.378Z,12.00
2019-01-25T07:04:31.061Z,20.00
2019-01-25T07:05:30.974Z,20.00
2019-01-25T07:07:23.607Z,24.00
2019-01-25T07:08:23.494Z,28.00
2019-01-25T07:10:16.113Z,40.00
2019-01-25T07:11:15.991Z,44.00
2019-01-25T07:13:08.668Z,48.00
2019-01-25T07:14:08.534Z,56.00
2019-01-25T07:16:01.181Z,68.00
2019-01-25T07:17:01.068Z,76.00
2019-01-25T07:18:53.739Z,92.00
2019-01-25T07:19:53.605Z,100.00
2019-01-25T07:21:46.263Z,116.00
2019-01-25T07:22:46.134Z,128.00
2019-01-25T07:24:38.799Z,148.00
2019-01-25T07:25:38.674Z,160.00
2019-01-25T07:27:31.322Z,172.00
2019-01-25T07:28:31.212Z,184.00
2019-01-25T07:30:23.877Z,200.00
2019-01-25T07:31:23.740Z,212.00
2019-01-25T07:33:16.417Z,224.00
2019-01-25T07:34:16.305Z,240.00
2019-01-25T07:36:08.962Z,268.00
2019-01-25T07:37:08.820Z,292.00
2019-01-25T07:39:01.527Z,332.00
2019-01-25T07:40:01.361Z,364.00
2019-01-25T07:41:59.172Z,424.00
2019-01-25T07:42:53.884Z,448.00
2019-01-25T07:44:46.573Z,460.00
2019-01-25T07:45:46.452Z,468.00
2019-01-25T07:47:39.097Z,520.00
2019-01-25T07:48:38.965Z,572.00
2019-01-25T07:50:31.645Z,628.00
2019-01-25T07:51:31.492Z,684.00
2019-01-25T07:53:24.156Z,700.00
2019-01-25T07:54:24.026Z,668.00
2019-01-25T07:56:16.678Z,580.00
2019-01-25T07:57:16.553Z,544.00
2019-01-25T07:59:09.229Z,564.00
2019-01-25T08:00:09.091Z,588.00
2019-01-25T08:02:01.971Z,704.00
2019-01-25T08:03:01.638Z,768.00
2019-01-25T08:04:54.303Z,656.00
2019-01-25T08:05:54.169Z,780.00
2019-01-25T08:07:46.826Z,784.00
2019-01-25T08:08:46.846Z,804.00
2019-01-25T08:10:39.390Z,828.00
2019-01-25T08:11:39.237Z,836.00
2019-01-25T08:13:31.935Z,900.00
2019-01-25T08:14:31.778Z,932.00
2019-01-25T08:16:24.505Z,944.00
2019-01-25T08:17:24.326Z,940.00
2019-01-25T08:19:16.976Z,1044.00
2019-01-25T08:20:16.891Z,992.00
2019-01-25T08:22:09.507Z,1072.00
2019-01-25T08:23:09.385Z,1176.00
2019-01-25T08:25:02.179Z,1132.00
2019-01-25T08:26:01.934Z,1128.00
2019-01-25T08:27:54.573Z,1092.00
2019-01-25T08:28:54.454Z,1096.00
2019-01-25T08:30:47.121Z,1184.00
2019-01-25T08:31:47.781Z,1244.00
2019-01-25T08:33:39.655Z,1248.00
2019-01-25T08:34:39.517Z,1328.00
2019-01-25T08:36:32.204Z,1332.00
2019-01-25T08:37:32.064Z,1468.00
2019-01-25T08:39:24.715Z,1304.00
2019-01-25T08:40:24.604Z,1496.00
2019-01-25T08:42:17.260Z,1392.00
2019-01-25T08:43:17.155Z,1512.00
2019-01-25T08:45:09.809Z,1576.00
2019-01-25T08:46:09.677Z,1836.00
2019-01-25T08:48:02.411Z,2052.00
2019-01-25T08:49:02.297Z,1764.00
2019-01-25T08:50:54.970Z,1680.00
2019-01-25T08:51:54.844Z,1652.00
2019-01-25T08:53:47.482Z,1828.00
2019-01-25T08:54:47.433Z,1836.00
2019-01-25T08:56:40.038Z,1892.00
2019-01-25T08:57:39.946Z,1824.00
2019-01-25T08:59:32.602Z,1712.00
2019-01-25T09:00:32.442Z,1652.00
2019-01-25T09:02:25.102Z,1688.00
2019-01-25T09:03:24.974Z,1544.00
2019-01-25T09:05:17.641Z,1856.00
2019-01-25T09:06:17.512Z,1808.00
2019-01-25T09:08:10.161Z,1596.00
2019-01-25T09:09:10.046Z,1548.00
2019-01-25T09:11:02.713Z,1756.00
2019-01-25T09:12:02.586Z,1916.00
2019-01-25T09:13:55.239Z,1892.00
2019-01-25T09:14:55.139Z,1848.00
2019-01-25T09:16:47.791Z,1836.00
2019-01-25T09:17:47.660Z,1896.00
2019-01-25T09:19:40.321Z,2088.00
2019-01-25T09:20:40.205Z,2304.00
2019-01-25T09:22:32.878Z,2284.00
2019-01-25T09:23:32.745Z,2392.00
2019-01-25T09:25:25.403Z,2540.00
2019-01-25T09:26:25.277Z,2604.00
2019-01-25T09:28:17.948Z,2536.00
2019-01-25T09:29:17.812Z,2568.00
2019-01-25T09:31:10.493Z,2780.00
2019-01-25T09:32:10.346Z,2804.00
2019-01-25T09:34:03.001Z,2848.00
2019-01-25T09:35:02.888Z,2804.00
2019-01-25T09:36:55.550Z,2536.00
2019-01-25T09:37:55.418Z,2456.00
2019-01-25T09:39:48.076Z,2624.00
2019-01-25T09:40:47.959Z,2560.00
2019-01-25T09:42:40.622Z,2684.00
2019-01-25T09:43:40.495Z,2640.00
2019-01-25T09:45:33.151Z,2960.00
2019-01-25T09:46:33.036Z,2880.00
2019-01-25T09:48:25.712Z,2968.00
2019-01-25T09:49:25.585Z,3008.00
2019-01-25T09:51:18.495Z,3248.00
2019-01-25T09:52:18.367Z,3620.00
2019-01-25T09:54:10.793Z,2936.00
2019-01-25T09:55:10.671Z,3180.00
2019-01-25T09:57:03.339Z,3212.00
2019-01-25T09:58:03.222Z,3252.00
2019-01-25T09:59:55.868Z,3268.00
2019-01-25T10:00:55.764Z,3508.00
2019-01-25T10:02:48.425Z,3988.00
2019-01-25T10:03:48.289Z,3848.00
2019-01-25T10:05:40.947Z,4272.00
2019-01-25T10:06:40.825Z,4340.00
2019-01-25T10:08:33.503Z,3752.00
2019-01-25T10:09:33.374Z,4044.00
2019-01-25T10:11:26.032Z,3696.00
2019-01-25T10:12:25.917Z,4040.00
2019-01-25T10:14:18.581Z,4244.00
2019-01-25T10:15:18.452Z,4396.00
2019-01-25T10:17:11.121Z,4592.00
2019-01-25T10:18:11.044Z,4556.00
2019-01-25T10:20:03.648Z,4220.00
2019-01-25T10:21:03.530Z,4904.00
2019-01-25T10:22:56.229Z,4060.00
2019-01-25T10:23:56.067Z,3960.00
2019-01-25T10:25:48.716Z,4340.00
2019-01-25T10:26:48.602Z,4252.00
2019-01-25T10:28:41.271Z,4232.00
2019-01-25T10:29:41.142Z,4052.00
2019-01-25T10:31:33.790Z,4080.00
2019-01-25T10:32:33.677Z,4352.00
2019-01-25T10:34:26.436Z,4832.00
2019-01-25T10:35:26.305Z,4816.00
2019-01-25T10:37:18.977Z,4488.00
2019-01-25T10:38:18.848Z,4744.00
2019-01-25T10:40:11.510Z,4660.00
2019-01-25T10:41:11.393Z,4500.00
2019-01-25T10:43:04.072Z,4916.00
2019-01-25T10:44:03.937Z,4780.00
2019-01-25T10:45:56.598Z,4312.00
2019-01-25T10:46:56.481Z,4228.00
2019-01-25T10:48:49.156Z,3760.00
2019-01-25T10:49:49.021Z,3460.00
2019-01-25T10:51:41.686Z,3308.00
2019-01-25T10:52:41.572Z,3432.00
2019-01-25T10:54:34.244Z,3852.00
2019-01-25T10:55:34.116Z,3976.00
2019-01-25T10:57:26.779Z,4188.00
2019-01-25T10:58:26.662Z,4060.00
2019-01-25T11:00:19.344Z,4004.00
2019-01-25T11:01:19.209Z,3528.00
2019-01-25T11:03:11.885Z,3452.00
2019-01-25T11:04:11.833Z,3448.00
2019-01-25T11:06:04.408Z,3212.00
2019-01-25T11:07:04.299Z,3524.00
2019-01-25T11:08:56.968Z,4240.00
2019-01-25T11:09:56.837Z,4624.00
2019-01-25T11:11:49.504Z,4644.00
2019-01-25T11:12:49.386Z,4980.00
2019-01-25T11:14:42.061Z,5548.00
2019-01-25T11:15:42.003Z,5364.00
2019-01-25T11:17:36.580Z,5240.00
2019-01-25T11:18:34.477Z,5308.00
2019-01-25T11:20:27.151Z,5552.00
2019-01-25T11:21:27.021Z,5488.00
2019-01-25T11:23:19.703Z,5404.00
2019-01-25T11:24:19.562Z,5320.00
2019-01-25T11:26:12.228Z,4444.00
2019-01-25T11:27:12.113Z,4152.00
2019-01-25T11:29:04.792Z,3480.00
2019-01-25T11:30:04.662Z,4404.00
2019-01-25T11:31:57.320Z,4100.00
2019-01-25T11:32:57.206Z,3640.00
2019-01-25T11:34:49.883Z,3144.00
2019-01-25T11:35:49.747Z,2944.00
2019-01-25T11:37:42.407Z,3588.00
2019-01-25T11:38:42.292Z,3412.00
2019-01-25T11:40:34.965Z,3136.00
2019-01-25T11:41:34.831Z,3184.00
2019-01-25T11:43:27.491Z,4008.00
2019-01-25T11:44:27.380Z,3632.00
2019-01-25T11:46:20.052Z,3840.00
2019-01-25T11:47:19.929Z,4024.00
2019-01-25T11:49:12.593Z,3468.00
2019-01-25T11:50:12.458Z,3820.00
2019-01-25T11:52:05.117Z,4172.00
2019-01-25T11:53:04.998Z,4356.00
2019-01-25T11:54:57.667Z,3772.00
2019-01-25T11:55:57.541Z,3764.00
2019-01-25T11:57:50.193Z,3608.00
2019-01-25T11:58:50.073Z,4072.00
2019-01-25T12:00:42.755Z,3696.00
2019-01-25T12:01:42.702Z,3536.00
2019-01-25T12:03:35.342Z,3080.00
2019-01-25T12:04:35.156Z,3100.00
2019-01-25T12:06:27.837Z,3092.00
2019-01-25T12:07:27.809Z,2956.00
2019-01-25T12:09:20.376Z,3848.00
2019-01-25T12:10:20.257Z,3704.00
2019-01-25T12:12:12.954Z,3804.00
2019-01-25T12:13:16.180Z,3720.00
2019-01-25T12:15:05.472Z,3624.00
2019-01-25T12:16:05.369Z,4220.00
2019-01-25T12:17:58.001Z,3328.00
2019-01-25T12:18:57.898Z,3068.00
2019-01-25T12:20:50.586Z,3896.00
2019-01-25T12:21:50.447Z,3856.00
2019-01-25T12:23:43.106Z,3348.00
2019-01-25T12:24:42.988Z,3384.00
2019-01-25T12:26:35.657Z,3436.00
2019-01-25T12:27:35.531Z,2620.00
2019-01-25T12:29:28.230Z,2640.00
2019-01-25T12:30:28.074Z,2704.00
2019-01-25T12:32:20.746Z,3016.00
2019-01-25T12:33:20.611Z,3032.00
2019-01-25T12:35:13.284Z,3108.00
2019-01-25T12:36:13.151Z,2932.00
2019-01-25T12:38:05.811Z,3056.00
2019-01-25T12:39:05.698Z,2832.00
2019-01-25T12:40:58.403Z,2640.00
2019-01-25T12:41:58.240Z,2952.00
2019-01-25T12:43:50.892Z,3040.00
2019-01-25T12:44:50.778Z,3004.00
2019-01-25T12:46:43.460Z,3580.00
2019-01-25T12:47:43.332Z,3736.00
2019-01-25T12:49:35.979Z,3356.00
2019-01-25T12:50:35.871Z,3500.00
2019-01-25T12:52:28.546Z,3316.00
2019-01-25T12:53:28.405Z,3296.00
2019-01-25T12:55:21.090Z,3776.00
2019-01-25T12:56:20.940Z,3604.00
2019-01-25T12:58:13.594Z,3260.00
2019-01-25T12:59:13.502Z,3388.00
2019-01-25T13:01:06.287Z,3176.00
2019-01-25T13:02:06.045Z,2816.00
2019-01-25T13:03:58.690Z,3088.00
2019-01-25T13:04:58.574Z,3524.00
2019-01-25T13:06:51.247Z,2948.00
2019-01-25T13:07:51.117Z,2788.00
2019-01-25T13:09:43.773Z,2732.00
2019-01-25T13:10:43.656Z,3024.00
2019-01-25T13:12:36.329Z,2852.00
2019-01-25T13:13:36.196Z,2692.00
2019-01-25T13:15:28.859Z,2828.00
2019-01-25T13:16:28.746Z,2780.00
2019-01-25T13:18:21.422Z,2684.00
2019-01-25T13:19:21.311Z,2752.00
2019-01-25T13:21:13.964Z,3000.00
2019-01-25T13:22:13.829Z,2816.00
2019-01-25T13:24:06.490Z,2708.00
2019-01-25T13:25:06.371Z,2656.00
2019-01-25T13:26:59.038Z,2264.00
2019-01-25T13:27:58.908Z,2044.00
2019-01-25T13:29:51.577Z,1904.00
2019-01-25T13:30:51.451Z,1968.00
2019-01-25T13:32:44.125Z,1944.00
2019-01-25T13:33:43.994Z,1952.00
2019-01-25T13:35:36.646Z,1828.00
2019-01-25T13:36:36.530Z,1832.00
2019-01-25T13:38:29.213Z,1792.00
2019-01-25T13:39:29.074Z,1744.00
2019-01-25T13:41:27.288Z,1860.00
2019-01-25T13:42:21.612Z,2068.00
2019-01-25T13:44:14.292Z,2116.00
2019-01-25T13:45:14.156Z,2092.00
2019-01-25T13:47:06.844Z,1924.00
2019-01-25T13:48:06.703Z,1776.00
2019-01-25T13:49:59.349Z,1504.00
2019-01-25T13:50:59.236Z,1532.00
2019-01-25T13:52:51.927Z,1656.00
2019-01-25T13:53:51.795Z,1816.00
2019-01-25T13:55:44.444Z,2124.00
2019-01-25T13:56:44.340Z,2104.00
2019-01-25T13:58:37.011Z,2112.00
2019-01-25T13:59:36.879Z,2324.00
2019-01-25T14:01:34.589Z,2324.00
2019-01-25T14:02:29.409Z,2140.00
2019-01-25T14:04:22.086Z,1944.00
2019-01-25T14:05:21.956Z,2052.00
2019-01-25T14:07:14.613Z,1704.00
2019-01-25T14:08:14.501Z,1896.00
2019-01-25T14:10:07.173Z,1976.00
2019-01-25T14:11:07.045Z,1992.00
2019-01-25T14:12:59.732Z,2040.00
2019-01-25T14:13:59.587Z,2008.00
2019-01-25T14:15:52.250Z,2532.00
2019-01-25T14:16:52.135Z,2448.00
2019-01-25T14:18:45.118Z,2668.00
2019-01-25T14:19:44.685Z,2600.00
2019-01-25T14:21:38.353Z,2920.00
2019-01-25T14:22:38.220Z,2992.00
2019-01-25T14:24:30.899Z,2492.00
2019-01-25T14:25:30.761Z,2264.00
2019-01-25T14:27:23.430Z,2264.00
2019-01-25T14:28:23.305Z,2336.00
2019-01-25T14:30:16.020Z,2440.00
2019-01-25T14:31:15.896Z,2432.00
2019-01-25T14:33:08.594Z,2508.00
2019-01-25T14:34:08.470Z,2628.00
2019-01-25T14:36:01.156Z,2368.00
2019-01-25T14:37:01.019Z,2380.00
2019-01-25T14:38:53.692Z,2328.00
2019-01-25T14:39:53.557Z,2352.00
2019-01-25T14:41:46.214Z,2196.00
2019-01-25T14:42:46.097Z,2128.00
2019-01-25T14:44:38.771Z,1880.00
2019-01-25T14:45:38.648Z,1676.00
2019-01-25T14:47:31.323Z,1688.00
2019-01-25T14:48:31.276Z,1696.00
2019-01-25T14:50:23.914Z,1692.00
2019-01-25T14:51:24.530Z,1648.00
2019-01-25T14:53:16.515Z,1576.00
2019-01-25T14:54:16.395Z,1532.00
2019-01-25T14:56:09.068Z,1496.00
2019-01-25T14:57:08.943Z,1452.00
2019-01-25T14:59:01.609Z,1396.00
2019-01-25T15:00:01.476Z,1428.00
2019-01-25T15:01:54.130Z,1268.00
2019-01-25T15:02:54.019Z,1236.00
2019-01-25T15:04:46.701Z,1132.00
2019-01-25T15:05:46.567Z,1060.00
2019-01-25T15:07:39.229Z,960.00
2019-01-25T15:08:39.111Z,956.00
2019-01-25T15:10:31.782Z,948.00
2019-01-25T15:11:31.663Z,912.00
2019-01-25T15:13:24.312Z,864.00
2019-01-25T15:14:24.238Z,784.00
2019-01-25T15:16:16.874Z,708.00
2019-01-25T15:17:16.737Z,696.00
2019-01-25T15:19:09.427Z,656.00
2019-01-25T15:20:09.297Z,628.00
2019-01-25T15:22:01.942Z,596.00
2019-01-25T15:23:01.839Z,560.00
2019-01-25T15:24:54.505Z,504.00
2019-01-25T15:25:54.375Z,488.00
2019-01-25T15:27:47.027Z,488.00
2019-01-25T15:28:46.913Z,448.00
2019-01-25T15:30:39.590Z,444.00
2019-01-25T15:31:39.450Z,396.00
2019-01-25T15:33:32.129Z,376.00
2019-01-25T15:34:32.008Z,356.00
2019-01-25T15:36:24.683Z,312.00
2019-01-25T15:37:24.547Z,296.00
2019-01-25T15:39:17.261Z,272.00
2019-01-25T15:40:17.148Z,276.00
2019-01-25T15:42:09.814Z,272.00
2019-01-25T15:43:09.684Z,264.00
2019-01-25T15:45:02.365Z,240.00
2019-01-25T15:46:02.248Z,248.00
2019-01-25T15:47:54.894Z,216.00
2019-01-25T15:48:54.775Z,208.00
2019-01-25T15:50:47.447Z,180.00
2019-01-25T15:51:47.318Z,176.00
2019-01-25T15:53:39.976Z,144.00
2019-01-25T15:54:39.858Z,136.00
2019-01-25T15:56:32.530Z,112.00
2019-01-25T15:57:32.401Z,104.00
2019-01-25T15:59:25.061Z,92.00
2019-01-25T16:00:24.941Z,88.00
2019-01-25T16:02:17.604Z,80.00
2019-01-25T16:03:17.476Z,80.00
2019-01-25T16:05:10.145Z,72.00
2019-01-25T16:06:10.020Z,72.00
2019-01-25T16:08:02.671Z,68.00
2019-01-25T16:09:02.552Z,68.00
2019-01-25T16:10:55.232Z,60.00
2019-01-25T16:11:55.102Z,56.00
2019-01-25T16:13:47.750Z,52.00
2019-01-25T16:14:47.637Z,52.00
2019-01-25T16:16:40.314Z,44.00
2019-01-25T16:17:40.176Z,44.00
2019-01-25T16:19:32.846Z,40.00
2019-01-25T16:20:32.723Z,40.00
2019-01-25T16:22:25.413Z,36.00
2019-01-25T16:23:25.273Z,36.00
2019-01-25T16:25:17.934Z,36.00
2019-01-25T16:26:17.811Z,36.00
2019-01-25T16:28:10.486Z,36.00
2019-01-25T16:29:10.357Z,32.00
2019-01-25T16:31:03.030Z,32.00
2019-01-25T16:32:02.998Z,28.00
2019-01-25T16:33:55.706Z,32.00
2019-01-25T16:34:55.494Z,32.00
2019-01-25T16:36:48.164Z,32.00
2019-01-25T16:37:48.060Z,32.00
2019-01-25T16:39:40.717Z,32.00
2019-01-25T16:40:40.603Z,32.00
2019-01-25T16:42:33.268Z,32.00
2019-01-25T16:43:33.139Z,28.00
2019-01-25T16:45:25.791Z,28.00
2019-01-25T16:46:25.698Z,28.00
2019-01-25T16:48:18.355Z,28.00
2019-01-25T16:49:18.220Z,28.00
2019-01-25T16:51:10.890Z,32.00
2019-01-25T16:52:10.765Z,28.00
2019-01-25T16:54:03.410Z,32.00
2019-01-25T16:55:03.296Z,28.00
2019-01-25T16:56:55.969Z,28.00
2019-01-25T16:57:55.831Z,28.00
2019-01-25T16:59:48.488Z,28.00
2019-01-25T17:00:48.376Z,28.00
2019-01-25T17:02:41.100Z,28.00
2019-01-25T17:03:40.913Z,28.00
2019-01-25T17:05:33.572Z,32.00
2019-01-25T17:06:33.455Z,32.00
2019-01-25T17:08:26.122Z,28.00
2019-01-25T17:09:25.987Z,28.00
2019-01-25T17:11:18.652Z,28.00
2019-01-25T17:12:18.532Z,28.00
2019-01-25T17:14:11.206Z,32.00
2019-01-25T17:15:11.080Z,28.00
2019-01-25T17:17:03.751Z,28.00
2019-01-25T17:18:03.625Z,32.00
2019-01-25T17:19:56.279Z,28.00
2019-01-25T17:20:56.162Z,28.00
2019-01-25T17:22:48.848Z,32.00
2019-01-25T17:23:48.714Z,28.00
2019-01-25T17:25:41.368Z,28.00
2019-01-25T17:26:41.253Z,28.00
2019-01-25T17:28:33.930Z,28.00
2019-01-25T17:29:33.802Z,28.00
2019-01-25T17:31:26.457Z,28.00
2019-01-25T17:32:26.347Z,28.00
2019-01-25T17:34:19.015Z,28.00
2019-01-25T17:35:18.889Z,28.00
2019-01-25T17:37:12.055Z,28.00
2019-01-25T17:38:11.916Z,28.00
2019-01-25T17:40:04.583Z,28.00
2019-01-25T17:41:04.464Z,28.00
2019-01-25T17:42:57.138Z,28.00
2019-01-25T17:43:57.005Z,28.00
2019-01-25T17:45:49.662Z,28.00
2019-01-25T17:46:49.539Z,28.00
2019-01-25T17:48:42.207Z,28.00
2019-01-25T17:49:42.083Z,28.00
2019-01-25T17:51:34.738Z,28.00
2019-01-25T17:52:34.621Z,28.00
2019-01-25T17:54:27.295Z,28.00
2019-01-25T17:55:27.162Z,28.00
2019-01-25T17:57:19.822Z,28.00
2019-01-25T17:58:19.700Z,28.00
2019-01-25T18:00:12.370Z,28.00
2019-01-25T18:01:12.245Z,28.00
2019-01-25T18:03:04.909Z,28.00
2019-01-25T18:04:04.773Z,28.00
2019-01-25T18:05:57.438Z,28.00
2019-01-25T18:06:57.318Z,28.00
2019-01-25T18:08:49.987Z,28.00
2019-01-25T18:09:49.860Z,28.00
2019-01-25T18:11:42.515Z,28.00
2019-01-25T18:12:42.401Z,28.00
2019-01-25T18:14:35.075Z,28.00
2019-01-25T18:15:34.942Z,28.00
2019-01-25T18:17:27.593Z,28.00
2019-01-25T18:18:27.482Z,28.00
2019-01-25T18:20:20.152Z,28.00
2019-01-25T18:21:20.025Z,28.00
2019-01-25T18:23:12.692Z,28.00
2019-01-25T18:24:12.556Z,28.00
2019-01-25T18:26:05.224Z,28.00
2019-01-25T18:27:05.107Z,28.00
2019-01-25T18:28:57.778Z,28.00
2019-01-25T18:29:57.641Z,28.00
2019-01-25T18:31:50.305Z,28.00
2019-01-25T18:32:50.187Z,28.00
2019-01-25T18:34:42.865Z,28.00
2019-01-25T18:35:42.727Z,28.00
2019-01-25T18:37:35.381Z,28.00
2019-01-25T18:38:35.270Z,28.00
2019-01-25T18:40:27.943Z,28.00
2019-01-25T18:41:27.810Z,28.00
2019-01-25T18:43:20.469Z,28.00
2019-01-25T18:44:20.354Z,28.00
2019-01-25T18:46:13.028Z,28.00
2019-01-25T18:47:12.891Z,28.00
2019-01-25T18:49:05.598Z,28.00
2019-01-25T18:50:05.462Z,28.00
2019-01-25T18:51:58.171Z,28.00
2019-01-25T18:52:58.002Z,28.00
2019-01-25T18:54:50.670Z,28.00
2019-01-25T18:55:50.539Z,32.00
2019-01-25T18:57:43.196Z,28.00
2019-01-25T18:58:43.082Z,28.00
2019-01-25T19:00:35.759Z,28.00
2019-01-25T19:01:35.626Z,28.00
2019-01-25T19:03:28.281Z,28.00
2019-01-25T19:04:28.164Z,28.00
2019-01-25T19:06:20.848Z,28.00
2019-01-25T19:07:20.717Z,28.00
2019-01-25T19:09:13.371Z,28.00
2019-01-25T19:10:14.281Z,28.00
2019-01-25T19:12:05.926Z,28.00
2019-01-25T19:13:05.798Z,28.00
2019-01-25T19:15:04.282Z,28.00
2019-01-25T19:15:58.335Z,28.00
2019-01-25T19:17:50.993Z,28.00
2019-01-25T19:18:50.883Z,28.00
2019-01-25T19:20:43.562Z,28.00
2019-01-25T19:21:43.426Z,28.00
2019-01-25T19:23:36.105Z,28.00
2019-01-25T19:24:35.990Z,28.00
2019-01-25T19:26:28.659Z,28.00
2019-01-25T19:27:28.524Z,28.00
2019-01-25T19:29:21.179Z,28.00
2019-01-25T19:30:21.071Z,28.00
2019-01-25T19:32:13.744Z,28.00
2019-01-25T19:33:13.613Z,28.00
2019-01-25T19:35:06.295Z,28.00
2019-01-25T19:36:06.154Z,28.00
2019-01-25T19:37:58.823Z,28.00
2019-01-25T19:38:58.696Z,28.00
2019-01-25T19:40:51.377Z,28.00
2019-01-25T19:41:51.250Z,28.00
2019-01-25T19:43:43.903Z,28.00
2019-01-25T19:44:43.790Z,28.00
2019-01-25T19:46:36.497Z,28.00
2019-01-25T19:47:37.037Z,28.00
2019-01-25T19:49:28.984Z,28.00
2019-01-25T19:50:28.869Z,28.00
2019-01-25T19:52:21.546Z,28.00
2019-01-25T19:53:21.412Z,28.00
2019-01-25T19:55:14.072Z,28.00
2019-01-25T19:56:13.952Z,28.00
2019-01-25T19:58:06.629Z,28.00
2019-01-25T19:59:06.490Z,28.00
2019-01-25T20:00:59.170Z,28.00
2019-01-25T20:01:59.040Z,28.00
2019-01-25T20:03:51.748Z,28.00
2019-01-25T20:04:51.599Z,28.00
2019-01-25T20:06:44.279Z,28.00
2019-01-25T20:07:44.143Z,28.00
2019-01-25T20:09:36.804Z,28.00
2019-01-25T20:10:36.682Z,28.00
2019-01-25T20:12:29.530Z,28.00
2019-01-25T20:13:29.242Z,28.00
2019-01-25T20:15:21.901Z,28.00
2019-01-25T20:16:21.781Z,28.00
2019-01-25T20:18:14.462Z,28.00
2019-01-25T20:19:14.328Z,28.00
2019-01-25T20:21:06.992Z,28.00
2019-01-25T20:22:06.874Z,28.00
2019-01-25T20:23:59.557Z,28.00
2019-01-25T20:24:59.424Z,28.00
2019-01-25T20:26:52.131Z,28.00
2019-01-25T20:27:51.973Z,28.00
2019-01-25T20:29:44.626Z,28.00
2019-01-25T20:30:49.595Z,28.00
2019-01-25T20:32:37.182Z,28.00
2019-01-25T20:33:37.056Z,28.00
2019-01-25T20:35:29.749Z,28.00
2019-01-25T20:36:29.634Z,28.00
2019-01-25T20:38:22.300Z,28.00
2019-01-25T20:39:22.173Z,28.00
2019-01-25T20:41:14.828Z,28.00
2019-01-25T20:42:14.708Z,28.00
2019-01-25T20:44:07.403Z,28.00
2019-01-25T20:45:07.342Z,28.00
2019-01-25T20:47:00.433Z,28.00
2019-01-25T20:48:00.400Z,28.00
2019-01-25T20:49:52.989Z,28.00
2019-01-25T20:50:52.862Z,28.00
2019-01-25T20:52:45.533Z,28.00
2019-01-25T20:53:45.398Z,28.00
2019-01-25T20:55:38.070Z,28.00
2019-01-25T20:56:37.963Z,28.00
2019-01-25T20:58:30.628Z,28.00
2019-01-25T20:59:30.501Z,28.00
2019-01-25T21:01:23.162Z,28.00
2019-01-25T21:02:23.113Z,28.00
2019-01-25T21:04:15.727Z,28.00
2019-01-25T21:05:15.598Z,28.00
2019-01-25T21:07:08.265Z,28.00
2019-01-25T21:08:08.149Z,28.00
2019-01-25T21:10:00.817Z,28.00
2019-01-25T21:11:00.691Z,28.00
2019-01-25T21:12:53.365Z,28.00
2019-01-25T21:13:53.233Z,28.00
2019-01-25T21:15:45.907Z,28.00
2019-01-25T21:16:45.775Z,28.00
2019-01-25T21:18:38.578Z,28.00
2019-01-25T21:19:38.449Z,28.00
2019-01-25T21:21:31.103Z,28.00
2019-01-25T21:22:30.988Z,28.00
2019-01-25T21:24:23.654Z,28.00
2019-01-25T21:25:23.526Z,28.00
2019-01-25T21:27:16.180Z,28.00
2019-01-25T21:28:16.063Z,28.00
2019-01-25T21:30:08.740Z,28.00
2019-01-25T21:31:08.612Z,28.00
2019-01-25T21:33:01.266Z,28.00
2019-01-25T21:34:01.154Z,28.00
2019-01-25T21:35:53.862Z,28.00
2019-01-25T21:36:53.702Z,28.00
2019-01-25T21:38:46.373Z,28.00
2019-01-25T21:39:46.239Z,28.00
2019-01-25T21:41:38.902Z,28.00
2019-01-25T21:42:38.788Z,28.00
2019-01-25T21:44:31.531Z,28.00
2019-01-25T21:45:31.362Z,28.00
2019-01-25T21:47:24.009Z,28.00
2019-01-25T21:48:23.892Z,28.00
2019-01-25T21:50:16.568Z,28.00
2019-01-25T21:51:16.438Z,28.00
2019-01-25T21:53:09.091Z,28.00
2019-01-25T21:54:08.978Z,28.00
2019-01-25T21:56:01.652Z,28.00
2019-01-25T21:57:01.528Z,28.00
2019-01-25T21:58:54.236Z,28.00
2019-01-25T21:59:54.064Z,28.00
2019-01-25T22:01:46.721Z,28.00
2019-01-25T22:02:46.612Z,28.00
2019-01-25T22:04:39.495Z,28.00
2019-01-25T22:05:39.149Z,28.00
2019-01-25T22:07:31.835Z,28.00
2019-01-25T22:08:31.692Z,28.00
2019-01-25T22:10:24.642Z,28.00
2019-01-25T22:11:24.275Z,28.00
2019-01-25T22:13:16.917Z,28.00
2019-01-25T22:14:16.807Z,28.00
2019-01-25T22:16:09.473Z,28.00
2019-01-25T22:17:09.339Z,28.00
2019-01-25T22:19:02.001Z,28.00
2019-01-25T22:20:01.925Z,28.00
2019-01-25T22:21:54.635Z,28.00
2019-01-25T22:22:54.513Z,28.00
2019-01-25T22:24:47.179Z,28.00
2019-01-25T22:25:47.044Z,28.00
2019-01-25T22:27:39.726Z,28.00
2019-01-25T22:28:39.591Z,28.00
2019-01-25T22:30:32.274Z,28.00
2019-01-25T22:31:32.142Z,28.00
2019-01-25T22:33:24.804Z,28.00
2019-01-25T22:34:24.683Z,28.00
2019-01-25T22:36:17.359Z,28.00
2019-01-25T22:37:17.226Z,28.00
2019-01-25T22:39:09.928Z,28.00
2019-01-25T22:40:09.809Z,28.00
2019-01-25T22:42:02.479Z,28.00
2019-01-25T22:43:02.353Z,28.00
2019-01-25T22:44:55.005Z,28.00
2019-01-25T22:45:58.789Z,28.00
2019-01-25T22:47:47.566Z,28.00
2019-01-25T22:48:47.435Z,28.00
2019-01-25T22:50:40.114Z,28.00
2019-01-25T22:51:39.979Z,28.00
2019-01-25T22:53:32.642Z,28.00
2019-01-25T22:54:32.530Z,28.00
2019-01-25T22:56:25.206Z,28.00
2019-01-25T22:57:25.106Z,28.00
2019-01-25T22:59:17.735Z,28.00
